sensor_id;sensor_type;location;lat;lon;timestamp;P1;durP1;ratioP1;P2;durP2;ratioP2
14681;SDS011;7429;52.498;13.480;2023-06-10T00:02:35;10.73;;;8.48;;
14681;SDS011;7429;52.498;13.480;2023-06-10T00:05:42;11.02;;;7.38;;
14681;SDS011;7429;52.498;13.480;2023-06-10T00:08:49;10.82;;;8.25;;
14681;SDS011;7429;52.498;13.480;2023-06-10T00:11:52;10.88;;;7.82;;
14681;SDS011;7429;52.498;13.480;2023-06-10T00:15:01;18.63;;;8.68;;
14681;SDS011;7429;52.498;13.480;2023-06-10T00:18:07;14.30;;;7.50;;
14681;SDS011;7429;52.498;13.480;2023-06-10T00:21:13;14.68;;;7.53;;
14681;SDS011;7429;52.498;13.480;2023-06-10T00:24:17;9.57;;;8.05;;
14681;SDS011;7429;52.498;13.480;2023-06-10T00:27:21;12.88;;;8.00;;
14681;SDS011;7429;52.498;13.480;2023-06-10T00:30:28;12.77;;;8.85;;
14681;SDS011;7429;52.498;13.480;2023-06-10T00:33:40;12.55;;;8.05;;
14681;SDS011;7429;52.498;13.480;2023-06-10T00:36:43;12.45;;;9.98;;
14681;SDS011;7429;52.498;13.480;2023-06-10T00:39:46;11.93;;;9.13;;
14681;SDS011;7429;52.498;13.480;2023-06-10T00:42:49;10.82;;;9.13;;
14681;SDS011;7429;52.498;13.480;2023-06-10T00:45:55;13.38;;;10.73;;
14681;SDS011;7429;52.498;13.480;2023-06-10T00:49:00;12.70;;;8.77;;
14681;SDS011;7429;52.498;13.480;2023-06-10T00:52:04;11.60;;;9.32;;
14681;SDS011;7429;52.498;13.480;2023-06-10T00:55:11;11.38;;;9.15;;
14681;SDS011;7429;52.498;13.480;2023-06-10T00:58:15;20.90;;;9.35;;
14681;SDS011;7429;52.498;13.480;2023-06-10T01:01:19;18.30;;;8.68;;
14681;SDS011;7429;52.498;13.480;2023-06-10T01:04:23;23.02;;;9.15;;
14681;SDS011;7429;52.498;13.480;2023-06-10T01:07:28;17.02;;;8.65;;
14681;SDS011;7429;52.498;13.480;2023-06-10T01:10:41;12.32;;;7.63;;
14681;SDS011;7429;52.498;13.480;2023-06-10T01:13:49;14.23;;;7.95;;
14681;SDS011;7429;52.498;13.480;2023-06-10T01:16:53;13.55;;;8.23;;
14681;SDS011;7429;52.498;13.480;2023-06-10T01:19:59;16.27;;;9.38;;
14681;SDS011;7429;52.498;13.480;2023-06-10T01:23:07;13.65;;;9.38;;
14681;SDS011;7429;52.498;13.480;2023-06-10T01:26:10;14.65;;;8.95;;
14681;SDS011;7429;52.498;13.480;2023-06-10T01:29:16;18.10;;;10.05;;
14681;SDS011;7429;52.498;13.480;2023-06-10T01:32:28;15.07;;;8.02;;
14681;SDS011;7429;52.498;13.480;2023-06-10T01:35:37;13.02;;;8.07;;
14681;SDS011;7429;52.498;13.480;2023-06-10T01:38:44;14.55;;;8.60;;
14681;SDS011;7429;52.498;13.480;2023-06-10T01:41:49;18.35;;;8.90;;
14681;SDS011;7429;52.498;13.480;2023-06-10T01:44:53;14.07;;;9.50;;
14681;SDS011;7429;52.498;13.480;2023-06-10T01:47:57;13.75;;;8.27;;
14681;SDS011;7429;52.498;13.480;2023-06-10T01:51:00;11.10;;;8.00;;
14681;SDS011;7429;52.498;13.480;2023-06-10T01:54:05;14.77;;;10.00;;
14681;SDS011;7429;52.498;13.480;2023-06-10T01:57:08;15.00;;;10.10;;
14681;SDS011;7429;52.498;13.480;2023-06-10T02:00:12;13.80;;;9.07;;
14681;SDS011;7429;52.498;13.480;2023-06-10T02:03:17;11.48;;;8.90;;
14681;SDS011;7429;52.498;13.480;2023-06-10T02:06:21;14.27;;;9.43;;
14681;SDS011;7429;52.498;13.480;2023-06-10T02:09:25;9.38;;;8.30;;
14681;SDS011;7429;52.498;13.480;2023-06-10T02:12:31;15.82;;;10.95;;
14681;SDS011;7429;52.498;13.480;2023-06-10T02:15:34;14.20;;;10.25;;
14681;SDS011;7429;52.498;13.480;2023-06-10T02:18:38;14.18;;;8.63;;
14681;SDS011;7429;52.498;13.480;2023-06-10T02:21:42;14.83;;;10.57;;
14681;SDS011;7429;52.498;13.480;2023-06-10T02:24:47;14.70;;;9.43;;
14681;SDS011;7429;52.498;13.480;2023-06-10T02:27:50;16.80;;;9.75;;
14681;SDS011;7429;52.498;13.480;2023-06-10T02:30:53;15.50;;;9.30;;
14681;SDS011;7429;52.498;13.480;2023-06-10T02:33:59;10.50;;;8.33;;
14681;SDS011;7429;52.498;13.480;2023-06-10T02:37:04;14.47;;;9.33;;
14681;SDS011;7429;52.498;13.480;2023-06-10T02:40:09;22.67;;;11.53;;
14681;SDS011;7429;52.498;13.480;2023-06-10T02:43:14;14.55;;;8.98;;
14681;SDS011;7429;52.498;13.480;2023-06-10T02:46:18;13.93;;;10.43;;
14681;SDS011;7429;52.498;13.480;2023-06-10T02:49:21;11.00;;;8.65;;
14681;SDS011;7429;52.498;13.480;2023-06-10T02:52:27;18.97;;;10.47;;
14681;SDS011;7429;52.498;13.480;2023-06-10T02:55:31;19.50;;;9.77;;
14681;SDS011;7429;52.498;13.480;2023-06-10T02:58:38;12.85;;;9.73;;
14681;SDS011;7429;52.498;13.480;2023-06-10T03:01:43;17.70;;;14.70;;
14681;SDS011;7429;52.498;13.480;2023-06-10T03:04:47;18.53;;;10.03;;
14681;SDS011;7429;52.498;13.480;2023-06-10T03:07:53;12.63;;;10.60;;
14681;SDS011;7429;52.498;13.480;2023-06-10T03:10:58;15.77;;;12.63;;
14681;SDS011;7429;52.498;13.480;2023-06-10T03:14:02;15.40;;;13.23;;
14681;SDS011;7429;52.498;13.480;2023-06-10T03:17:06;18.00;;;10.07;;
14681;SDS011;7429;52.498;13.480;2023-06-10T03:20:12;14.82;;;13.45;;
14681;SDS011;7429;52.498;13.480;2023-06-10T03:23:19;15.37;;;11.73;;
14681;SDS011;7429;52.498;13.480;2023-06-10T03:26:25;14.67;;;10.60;;
14681;SDS011;7429;52.498;13.480;2023-06-10T03:29:29;19.73;;;12.70;;
14681;SDS011;7429;52.498;13.480;2023-06-10T03:32:33;18.67;;;13.87;;
14681;SDS011;7429;52.498;13.480;2023-06-10T03:35:41;21.03;;;14.43;;
14681;SDS011;7429;52.498;13.480;2023-06-10T03:38:44;16.42;;;14.85;;
14681;SDS011;7429;52.498;13.480;2023-06-10T03:41:49;14.10;;;12.50;;
14681;SDS011;7429;52.498;13.480;2023-06-10T03:44:53;14.55;;;13.20;;
14681;SDS011;7429;52.498;13.480;2023-06-10T03:47:56;15.67;;;14.30;;
14681;SDS011;7429;52.498;13.480;2023-06-10T03:51:06;18.30;;;13.93;;
14681;SDS011;7429;52.498;13.480;2023-06-10T03:54:09;19.33;;;11.88;;
14681;SDS011;7429;52.498;13.480;2023-06-10T03:57:13;13.33;;;11.93;;
14681;SDS011;7429;52.498;13.480;2023-06-10T04:00:17;15.20;;;10.65;;
14681;SDS011;7429;52.498;13.480;2023-06-10T04:03:22;13.43;;;10.83;;
14681;SDS011;7429;52.498;13.480;2023-06-10T04:06:26;19.30;;;15.50;;
14681;SDS011;7429;52.498;13.480;2023-06-10T04:09:30;17.23;;;13.17;;
14681;SDS011;7429;52.498;13.480;2023-06-10T04:12:35;13.83;;;9.90;;
14681;SDS011;7429;52.498;13.480;2023-06-10T04:15:38;16.27;;;11.97;;
14681;SDS011;7429;52.498;13.480;2023-06-10T04:18:45;16.00;;;13.10;;
14681;SDS011;7429;52.498;13.480;2023-06-10T04:21:50;16.13;;;11.83;;
14681;SDS011;7429;52.498;13.480;2023-06-10T04:24:54;17.90;;;16.13;;
14681;SDS011;7429;52.498;13.480;2023-06-10T04:28:00;19.37;;;13.03;;
14681;SDS011;7429;52.498;13.480;2023-06-10T04:31:03;15.07;;;12.97;;
14681;SDS011;7429;52.498;13.480;2023-06-10T04:34:06;13.07;;;10.70;;
14681;SDS011;7429;52.498;13.480;2023-06-10T04:37:10;14.43;;;12.20;;
14681;SDS011;7429;52.498;13.480;2023-06-10T04:40:14;13.65;;;9.70;;
14681;SDS011;7429;52.498;13.480;2023-06-10T04:43:19;12.93;;;10.48;;
14681;SDS011;7429;52.498;13.480;2023-06-10T04:46:24;18.43;;;11.40;;
14681;SDS011;7429;52.498;13.480;2023-06-10T04:49:27;20.20;;;10.23;;
14681;SDS011;7429;52.498;13.480;2023-06-10T04:52:31;21.08;;;16.55;;
14681;SDS011;7429;52.498;13.480;2023-06-10T04:55:40;16.45;;;12.90;;
14681;SDS011;7429;52.498;13.480;2023-06-10T04:58:45;17.38;;;16.00;;
14681;SDS011;7429;52.498;13.480;2023-06-10T05:01:48;15.85;;;9.30;;
14681;SDS011;7429;52.498;13.480;2023-06-10T05:04:52;13.95;;;8.63;;
14681;SDS011;7429;52.498;13.480;2023-06-10T05:07:56;14.40;;;9.23;;
14681;SDS011;7429;52.498;13.480;2023-06-10T05:10:59;17.92;;;10.27;;
14681;SDS011;7429;52.498;13.480;2023-06-10T05:14:03;17.58;;;9.52;;
14681;SDS011;7429;52.498;13.480;2023-06-10T05:17:06;15.90;;;9.30;;
14681;SDS011;7429;52.498;13.480;2023-06-10T05:20:10;12.30;;;9.70;;
14681;SDS011;7429;52.498;13.480;2023-06-10T05:23:15;15.32;;;10.70;;
14681;SDS011;7429;52.498;13.480;2023-06-10T05:26:18;10.45;;;9.35;;
14681;SDS011;7429;52.498;13.480;2023-06-10T05:29:22;17.58;;;11.10;;
14681;SDS011;7429;52.498;13.480;2023-06-10T05:32:25;12.02;;;9.75;;
14681;SDS011;7429;52.498;13.480;2023-06-10T05:35:28;13.45;;;12.02;;
14681;SDS011;7429;52.498;13.480;2023-06-10T05:38:32;19.00;;;16.98;;
14681;SDS011;7429;52.498;13.480;2023-06-10T05:41:35;16.00;;;14.68;;
14681;SDS011;7429;52.498;13.480;2023-06-10T05:44:40;13.45;;;9.30;;
14681;SDS011;7429;52.498;13.480;2023-06-10T05:47:43;12.93;;;8.65;;
14681;SDS011;7429;52.498;13.480;2023-06-10T05:50:46;10.95;;;9.82;;
14681;SDS011;7429;52.498;13.480;2023-06-10T05:53:49;15.43;;;14.07;;
14681;SDS011;7429;52.498;13.480;2023-06-10T05:56:52;15.77;;;9.18;;
14681;SDS011;7429;52.498;13.480;2023-06-10T05:59:57;12.13;;;10.95;;
14681;SDS011;7429;52.498;13.480;2023-06-10T06:03:00;17.63;;;15.88;;
14681;SDS011;7429;52.498;13.480;2023-06-10T06:06:04;11.63;;;9.25;;
14681;SDS011;7429;52.498;13.480;2023-06-10T06:09:08;16.38;;;9.18;;
14681;SDS011;7429;52.498;13.480;2023-06-10T06:12:11;12.13;;;9.45;;
14681;SDS011;7429;52.498;13.480;2023-06-10T06:15:15;14.43;;;9.90;;
14681;SDS011;7429;52.498;13.480;2023-06-10T06:18:18;13.75;;;9.45;;
14681;SDS011;7429;52.498;13.480;2023-06-10T06:21:21;10.82;;;9.02;;
14681;SDS011;7429;52.498;13.480;2023-06-10T06:24:24;10.32;;;9.30;;
14681;SDS011;7429;52.498;13.480;2023-06-10T06:27:28;12.02;;;9.05;;
14681;SDS011;7429;52.498;13.480;2023-06-10T06:30:32;13.02;;;8.95;;
14681;SDS011;7429;52.498;13.480;2023-06-10T06:33:35;11.45;;;9.20;;
14681;SDS011;7429;52.498;13.480;2023-06-10T06:36:38;12.32;;;9.60;;
14681;SDS011;7429;52.498;13.480;2023-06-10T06:39:41;12.63;;;8.57;;
14681;SDS011;7429;52.498;13.480;2023-06-10T06:42:45;10.35;;;8.40;;
14681;SDS011;7429;52.498;13.480;2023-06-10T06:45:58;12.70;;;8.40;;
14681;SDS011;7429;52.498;13.480;2023-06-10T06:49:01;18.85;;;9.38;;
14681;SDS011;7429;52.498;13.480;2023-06-10T06:52:04;9.85;;;8.25;;
14681;SDS011;7429;52.498;13.480;2023-06-10T06:55:08;16.40;;;8.60;;
14681;SDS011;7429;52.498;13.480;2023-06-10T06:58:12;14.25;;;9.45;;
14681;SDS011;7429;52.498;13.480;2023-06-10T07:01:16;14.68;;;8.35;;
14681;SDS011;7429;52.498;13.480;2023-06-10T07:04:20;11.85;;;9.27;;
14681;SDS011;7429;52.498;13.480;2023-06-10T07:07:24;10.60;;;8.55;;
14681;SDS011;7429;52.498;13.480;2023-06-10T07:10:28;13.50;;;8.50;;
14681;SDS011;7429;52.498;13.480;2023-06-10T07:13:31;12.60;;;9.38;;
14681;SDS011;7429;52.498;13.480;2023-06-10T07:16:36;18.55;;;10.93;;
14681;SDS011;7429;52.498;13.480;2023-06-10T07:19:39;12.57;;;9.35;;
14681;SDS011;7429;52.498;13.480;2023-06-10T07:22:42;9.82;;;8.70;;
14681;SDS011;7429;52.498;13.480;2023-06-10T07:25:45;14.68;;;10.63;;
14681;SDS011;7429;52.498;13.480;2023-06-10T07:28:48;13.77;;;8.95;;
14681;SDS011;7429;52.498;13.480;2023-06-10T07:31:53;15.48;;;9.80;;
14681;SDS011;7429;52.498;13.480;2023-06-10T07:34:56;14.35;;;11.30;;
14681;SDS011;7429;52.498;13.480;2023-06-10T07:37:59;9.80;;;8.77;;
14681;SDS011;7429;52.498;13.480;2023-06-10T07:41:02;11.50;;;8.30;;
14681;SDS011;7429;52.498;13.480;2023-06-10T07:44:06;13.55;;;9.20;;
14681;SDS011;7429;52.498;13.480;2023-06-10T07:47:10;10.18;;;8.05;;
14681;SDS011;7429;52.498;13.480;2023-06-10T07:50:13;12.43;;;11.10;;
14681;SDS011;7429;52.498;13.480;2023-06-10T07:53:16;13.70;;;9.50;;
14681;SDS011;7429;52.498;13.480;2023-06-10T07:56:19;10.68;;;9.50;;
14681;SDS011;7429;52.498;13.480;2023-06-10T07:59:23;12.70;;;9.90;;
14681;SDS011;7429;52.498;13.480;2023-06-10T08:02:28;13.88;;;10.93;;
14681;SDS011;7429;52.498;13.480;2023-06-10T08:05:32;12.70;;;9.68;;
14681;SDS011;7429;52.498;13.480;2023-06-10T08:08:35;12.23;;;8.80;;
14681;SDS011;7429;52.498;13.480;2023-06-10T08:11:42;13.85;;;9.35;;
14681;SDS011;7429;52.498;13.480;2023-06-10T08:14:45;14.43;;;8.70;;
14681;SDS011;7429;52.498;13.480;2023-06-10T08:17:50;12.80;;;8.45;;
14681;SDS011;7429;52.498;13.480;2023-06-10T08:20:53;9.15;;;8.23;;
14681;SDS011;7429;52.498;13.480;2023-06-10T08:23:57;14.38;;;8.13;;
14681;SDS011;7429;52.498;13.480;2023-06-10T08:27:00;13.45;;;9.68;;
14681;SDS011;7429;52.498;13.480;2023-06-10T08:30:03;11.73;;;8.38;;
14681;SDS011;7429;52.498;13.480;2023-06-10T08:33:09;10.30;;;9.18;;
14681;SDS011;7429;52.498;13.480;2023-06-10T08:36:12;12.30;;;8.07;;
14681;SDS011;7429;52.498;13.480;2023-06-10T08:39:16;13.85;;;9.48;;
14681;SDS011;7429;52.498;13.480;2023-06-10T08:42:21;11.05;;;8.48;;
14681;SDS011;7429;52.498;13.480;2023-06-10T08:45:29;14.65;;;8.43;;
14681;SDS011;7429;52.498;13.480;2023-06-10T08:48:35;13.02;;;8.50;;
14681;SDS011;7429;52.498;13.480;2023-06-10T08:51:50;14.32;;;9.38;;
14681;SDS011;7429;52.498;13.480;2023-06-10T08:55:03;10.32;;;8.07;;
14681;SDS011;7429;52.498;13.480;2023-06-10T08:58:07;15.32;;;9.23;;
14681;SDS011;7429;52.498;13.480;2023-06-10T09:01:11;12.93;;;9.07;;
14681;SDS011;7429;52.498;13.480;2023-06-10T09:04:16;14.32;;;9.35;;
14681;SDS011;7429;52.498;13.480;2023-06-10T09:07:20;10.50;;;8.60;;
14681;SDS011;7429;52.498;13.480;2023-06-10T09:10:25;10.85;;;7.88;;
14681;SDS011;7429;52.498;13.480;2023-06-10T09:13:29;15.20;;;8.75;;
14681;SDS011;7429;52.498;13.480;2023-06-10T09:16:32;11.63;;;8.60;;
14681;SDS011;7429;52.498;13.480;2023-06-10T09:19:36;10.77;;;8.73;;
14681;SDS011;7429;52.498;13.480;2023-06-10T09:22:41;9.20;;;8.30;;
14681;SDS011;7429;52.498;13.480;2023-06-10T09:25:45;12.43;;;7.65;;
14681;SDS011;7429;52.498;13.480;2023-06-10T09:28:49;11.68;;;7.32;;
14681;SDS011;7429;52.498;13.480;2023-06-10T09:31:52;11.00;;;8.10;;
14681;SDS011;7429;52.498;13.480;2023-06-10T09:34:57;12.35;;;7.82;;
14681;SDS011;7429;52.498;13.480;2023-06-10T09:38:00;10.82;;;6.72;;
14681;SDS011;7429;52.498;13.480;2023-06-10T09:41:04;12.50;;;7.10;;
14681;SDS011;7429;52.498;13.480;2023-06-10T09:44:10;12.25;;;6.47;;
14681;SDS011;7429;52.498;13.480;2023-06-10T09:47:19;14.32;;;7.80;;
14681;SDS011;7429;52.498;13.480;2023-06-10T09:50:25;8.85;;;7.20;;
14681;SDS011;7429;52.498;13.480;2023-06-10T09:53:32;17.23;;;8.20;;
14681;SDS011;7429;52.498;13.480;2023-06-10T09:56:36;9.98;;;7.78;;
14681;SDS011;7429;52.498;13.480;2023-06-10T09:59:44;14.75;;;7.82;;
14681;SDS011;7429;52.498;13.480;2023-06-10T10:02:48;10.93;;;8.13;;
14681;SDS011;7429;52.498;13.480;2023-06-10T10:05:58;7.72;;;6.85;;
14681;SDS011;7429;52.498;13.480;2023-06-10T10:09:03;9.90;;;7.47;;
14681;SDS011;7429;52.498;13.480;2023-06-10T10:12:08;9.55;;;7.32;;
14681;SDS011;7429;52.498;13.480;2023-06-10T10:15:14;8.95;;;8.00;;
14681;SDS011;7429;52.498;13.480;2023-06-10T10:18:20;10.15;;;7.55;;
14681;SDS011;7429;52.498;13.480;2023-06-10T10:21:35;15.77;;;7.53;;
14681;SDS011;7429;52.498;13.480;2023-06-10T10:24:45;8.98;;;7.32;;
14681;SDS011;7429;52.498;13.480;2023-06-10T10:27:54;9.77;;;6.13;;
14681;SDS011;7429;52.498;13.480;2023-06-10T10:31:02;8.00;;;6.18;;
14681;SDS011;7429;52.498;13.480;2023-06-10T10:34:13;7.95;;;6.10;;
14681;SDS011;7429;52.498;13.480;2023-06-10T10:37:20;14.07;;;6.40;;
14681;SDS011;7429;52.498;13.480;2023-06-10T10:40:24;7.43;;;5.70;;
14681;SDS011;7429;52.498;13.480;2023-06-10T10:43:30;7.60;;;5.72;;
14681;SDS011;7429;52.498;13.480;2023-06-10T10:46:41;6.45;;;5.85;;
14681;SDS011;7429;52.498;13.480;2023-06-10T10:49:45;6.63;;;4.78;;
14681;SDS011;7429;52.498;13.480;2023-06-10T10:52:56;6.78;;;6.07;;
14681;SDS011;7429;52.498;13.480;2023-06-10T10:56:07;7.25;;;4.50;;
14681;SDS011;7429;52.498;13.480;2023-06-10T10:59:14;6.50;;;5.78;;
14681;SDS011;7429;52.498;13.480;2023-06-10T11:02:35;8.23;;;5.53;;
14681;SDS011;7429;52.498;13.480;2023-06-10T11:05:45;6.65;;;4.97;;
14681;SDS011;7429;52.498;13.480;2023-06-10T11:08:52;6.03;;;5.43;;
14681;SDS011;7429;52.498;13.480;2023-06-10T11:11:56;5.63;;;5.05;;
14681;SDS011;7429;52.498;13.480;2023-06-10T11:15:00;7.85;;;5.32;;
14681;SDS011;7429;52.498;13.480;2023-06-10T11:18:08;10.18;;;5.32;;
14681;SDS011;7429;52.498;13.480;2023-06-10T11:21:16;7.00;;;5.18;;
14681;SDS011;7429;52.498;13.480;2023-06-10T11:24:21;8.48;;;6.05;;
14681;SDS011;7429;52.498;13.480;2023-06-10T11:27:28;6.32;;;5.70;;
14681;SDS011;7429;52.498;13.480;2023-06-10T11:30:40;8.57;;;6.20;;
14681;SDS011;7429;52.498;13.480;2023-06-10T11:33:45;7.07;;;5.72;;
14681;SDS011;7429;52.498;13.480;2023-06-10T11:36:50;5.60;;;5.10;;
14681;SDS011;7429;52.498;13.480;2023-06-10T11:39:55;5.43;;;4.93;;
14681;SDS011;7429;52.498;13.480;2023-06-10T11:42:59;5.43;;;4.47;;
14681;SDS011;7429;52.498;13.480;2023-06-10T11:46:02;5.07;;;4.68;;
14681;SDS011;7429;52.498;13.480;2023-06-10T11:49:06;5.63;;;4.85;;
14681;SDS011;7429;52.498;13.480;2023-06-10T11:52:09;6.30;;;5.10;;
14681;SDS011;7429;52.498;13.480;2023-06-10T11:55:14;6.88;;;5.78;;
14681;SDS011;7429;52.498;13.480;2023-06-10T11:58:19;7.18;;;6.43;;
14681;SDS011;7429;52.498;13.480;2023-06-10T12:01:25;5.43;;;4.90;;
14681;SDS011;7429;52.498;13.480;2023-06-10T12:04:30;6.18;;;4.70;;
14681;SDS011;7429;52.498;13.480;2023-06-10T12:07:33;5.88;;;5.38;;
14681;SDS011;7429;52.498;13.480;2023-06-10T12:10:45;6.65;;;5.40;;
14681;SDS011;7429;52.498;13.480;2023-06-10T12:13:57;7.75;;;6.25;;
14681;SDS011;7429;52.498;13.480;2023-06-10T12:17:02;7.03;;;6.10;;
14681;SDS011;7429;52.498;13.480;2023-06-10T12:20:06;7.57;;;6.78;;
14681;SDS011;7429;52.498;13.480;2023-06-10T12:23:44;8.35;;;6.72;;
14681;SDS011;7429;52.498;13.480;2023-06-10T12:26:40;9.73;;;7.10;;
14681;SDS011;7429;52.498;13.480;2023-06-10T12:29:50;8.98;;;7.03;;
14681;SDS011;7429;52.498;13.480;2023-06-10T12:32:56;8.80;;;7.10;;
14681;SDS011;7429;52.498;13.480;2023-06-10T12:36:00;8.13;;;7.47;;
14681;SDS011;7429;52.498;13.480;2023-06-10T12:39:04;10.95;;;7.55;;
14681;SDS011;7429;52.498;13.480;2023-06-10T12:42:09;13.02;;;7.18;;
14681;SDS011;7429;52.498;13.480;2023-06-10T12:45:14;7.85;;;6.97;;
14681;SDS011;7429;52.498;13.480;2023-06-10T12:48:17;11.10;;;7.68;;
14681;SDS011;7429;52.498;13.480;2023-06-10T12:51:23;9.20;;;7.57;;
14681;SDS011;7429;52.498;13.480;2023-06-10T12:54:27;8.30;;;6.88;;
14681;SDS011;7429;52.498;13.480;2023-06-10T12:57:31;8.02;;;7.13;;
14681;SDS011;7429;52.498;13.480;2023-06-10T13:00:34;10.90;;;7.20;;
14681;SDS011;7429;52.498;13.480;2023-06-10T13:03:37;10.52;;;7.13;;
14681;SDS011;7429;52.498;13.480;2023-06-10T13:06:41;11.70;;;7.22;;
14681;SDS011;7429;52.498;13.480;2023-06-10T13:09:45;8.85;;;7.35;;
14681;SDS011;7429;52.498;13.480;2023-06-10T13:12:52;7.82;;;6.82;;
14681;SDS011;7429;52.498;13.480;2023-06-10T13:15:58;12.95;;;7.72;;
14681;SDS011;7429;52.498;13.480;2023-06-10T13:19:02;11.23;;;7.75;;
14681;SDS011;7429;52.498;13.480;2023-06-10T13:22:07;11.57;;;7.88;;
14681;SDS011;7429;52.498;13.480;2023-06-10T13:25:10;7.80;;;6.97;;
14681;SDS011;7429;52.498;13.480;2023-06-10T13:28:16;10.25;;;8.48;;
14681;SDS011;7429;52.498;13.480;2023-06-10T13:31:19;8.40;;;7.03;;
14681;SDS011;7429;52.498;13.480;2023-06-10T13:34:23;8.00;;;7.30;;
14681;SDS011;7429;52.498;13.480;2023-06-10T13:37:27;9.27;;;6.80;;
14681;SDS011;7429;52.498;13.480;2023-06-10T13:40:30;11.60;;;8.15;;
14681;SDS011;7429;52.498;13.480;2023-06-10T13:43:37;7.35;;;6.75;;
14681;SDS011;7429;52.498;13.480;2023-06-10T13:46:41;9.82;;;7.72;;
14681;SDS011;7429;52.498;13.480;2023-06-10T13:49:46;8.80;;;6.80;;
14681;SDS011;7429;52.498;13.480;2023-06-10T13:52:50;9.95;;;6.65;;
14681;SDS011;7429;52.498;13.480;2023-06-10T13:55:53;15.27;;;7.50;;
14681;SDS011;7429;52.498;13.480;2023-06-10T13:58:58;9.52;;;6.95;;
14681;SDS011;7429;52.498;13.480;2023-06-10T14:02:04;10.88;;;7.13;;
14681;SDS011;7429;52.498;13.480;2023-06-10T14:05:10;12.70;;;7.35;;
14681;SDS011;7429;52.498;13.480;2023-06-10T14:08:14;8.02;;;6.63;;
14681;SDS011;7429;52.498;13.480;2023-06-10T14:11:17;9.07;;;5.80;;
14681;SDS011;7429;52.498;13.480;2023-06-10T14:14:22;12.75;;;7.28;;
14681;SDS011;7429;52.498;13.480;2023-06-10T14:17:25;7.20;;;6.45;;
14681;SDS011;7429;52.498;13.480;2023-06-10T14:20:29;10.23;;;6.57;;
14681;SDS011;7429;52.498;13.480;2023-06-10T14:23:35;12.73;;;6.75;;
14681;SDS011;7429;52.498;13.480;2023-06-10T14:26:38;7.30;;;5.50;;
14681;SDS011;7429;52.498;13.480;2023-06-10T14:29:43;7.78;;;6.30;;
14681;SDS011;7429;52.498;13.480;2023-06-10T14:32:46;8.20;;;6.10;;
14681;SDS011;7429;52.498;13.480;2023-06-10T14:35:49;6.43;;;5.65;;
14681;SDS011;7429;52.498;13.480;2023-06-10T14:38:52;9.07;;;6.82;;
14681;SDS011;7429;52.498;13.480;2023-06-10T14:41:55;6.80;;;5.82;;
14681;SDS011;7429;52.498;13.480;2023-06-10T14:45:00;10.20;;;6.40;;
14681;SDS011;7429;52.498;13.480;2023-06-10T14:48:04;7.93;;;4.90;;
14681;SDS011;7429;52.498;13.480;2023-06-10T14:51:09;8.57;;;6.03;;
14681;SDS011;7429;52.498;13.480;2023-06-10T14:54:12;6.70;;;5.97;;
14681;SDS011;7429;52.498;13.480;2023-06-10T14:57:15;8.40;;;5.68;;
14681;SDS011;7429;52.498;13.480;2023-06-10T15:00:19;6.30;;;5.70;;
14681;SDS011;7429;52.498;13.480;2023-06-10T15:03:24;8.60;;;6.25;;
14681;SDS011;7429;52.498;13.480;2023-06-10T15:06:28;6.93;;;6.13;;
14681;SDS011;7429;52.498;13.480;2023-06-10T15:09:31;7.00;;;6.30;;
14681;SDS011;7429;52.498;13.480;2023-06-10T15:12:34;8.48;;;6.28;;
14681;SDS011;7429;52.498;13.480;2023-06-10T15:15:39;6.13;;;5.32;;
14681;SDS011;7429;52.498;13.480;2023-06-10T15:18:42;10.27;;;5.85;;
14681;SDS011;7429;52.498;13.480;2023-06-10T15:21:46;6.47;;;5.55;;
14681;SDS011;7429;52.498;13.480;2023-06-10T15:24:49;8.63;;;5.72;;
14681;SDS011;7429;52.498;13.480;2023-06-10T15:27:52;11.57;;;5.78;;
14681;SDS011;7429;52.498;13.480;2023-06-10T15:30:57;8.57;;;7.70;;
14681;SDS011;7429;52.498;13.480;2023-06-10T15:34:01;12.52;;;9.52;;
14681;SDS011;7429;52.498;13.480;2023-06-10T15:37:04;9.68;;;8.68;;
14681;SDS011;7429;52.498;13.480;2023-06-10T15:40:07;10.40;;;6.13;;
14681;SDS011;7429;52.498;13.480;2023-06-10T15:43:11;9.75;;;6.65;;
14681;SDS011;7429;52.498;13.480;2023-06-10T15:46:16;7.30;;;5.43;;
14681;SDS011;7429;52.498;13.480;2023-06-10T15:49:19;7.03;;;4.97;;
14681;SDS011;7429;52.498;13.480;2023-06-10T15:52:22;11.82;;;5.05;;
14681;SDS011;7429;52.498;13.480;2023-06-10T15:55:25;7.93;;;5.60;;
14681;SDS011;7429;52.498;13.480;2023-06-10T15:58:30;6.75;;;4.82;;
14681;SDS011;7429;52.498;13.480;2023-06-10T16:01:35;10.63;;;5.22;;
14681;SDS011;7429;52.498;13.480;2023-06-10T16:04:38;9.45;;;5.00;;
14681;SDS011;7429;52.498;13.480;2023-06-10T16:07:44;5.70;;;5.03;;
14681;SDS011;7429;52.498;13.480;2023-06-10T16:10:48;6.80;;;5.03;;
14681;SDS011;7429;52.498;13.480;2023-06-10T16:13:52;7.03;;;5.30;;
14681;SDS011;7429;52.498;13.480;2023-06-10T16:16:56;10.23;;;4.97;;
14681;SDS011;7429;52.498;13.480;2023-06-10T16:20:00;8.40;;;6.13;;
14681;SDS011;7429;52.498;13.480;2023-06-10T16:23:03;9.13;;;7.55;;
14681;SDS011;7429;52.498;13.480;2023-06-10T16:26:07;5.25;;;4.65;;
14681;SDS011;7429;52.498;13.480;2023-06-10T16:29:10;9.82;;;5.00;;
14681;SDS011;7429;52.498;13.480;2023-06-10T16:32:15;6.15;;;5.50;;
14681;SDS011;7429;52.498;13.480;2023-06-10T16:35:19;9.15;;;5.40;;
14681;SDS011;7429;52.498;13.480;2023-06-10T16:38:22;6.53;;;5.13;;
14681;SDS011;7429;52.498;13.480;2023-06-10T16:41:25;5.95;;;5.35;;
14681;SDS011;7429;52.498;13.480;2023-06-10T16:44:28;7.55;;;5.53;;
14681;SDS011;7429;52.498;13.480;2023-06-10T16:47:33;8.32;;;5.50;;
14681;SDS011;7429;52.498;13.480;2023-06-10T16:50:37;9.40;;;5.43;;
14681;SDS011;7429;52.498;13.480;2023-06-10T16:53:40;6.03;;;5.28;;
14681;SDS011;7429;52.498;13.480;2023-06-10T16:56:43;7.53;;;5.13;;
14681;SDS011;7429;52.498;13.480;2023-06-10T16:59:46;6.95;;;5.68;;
14681;SDS011;7429;52.498;13.480;2023-06-10T17:02:53;10.40;;;6.38;;
14681;SDS011;7429;52.498;13.480;2023-06-10T17:05:56;8.70;;;5.85;;
14681;SDS011;7429;52.498;13.480;2023-06-10T17:09:00;7.22;;;5.28;;
14681;SDS011;7429;52.498;13.480;2023-06-10T17:12:04;6.22;;;5.28;;
14681;SDS011;7429;52.498;13.480;2023-06-10T17:15:09;7.47;;;5.60;;
14681;SDS011;7429;52.498;13.480;2023-06-10T17:18:16;7.72;;;6.60;;
14681;SDS011;7429;52.498;13.480;2023-06-10T17:21:19;6.20;;;5.63;;
14681;SDS011;7429;52.498;13.480;2023-06-10T17:24:22;6.45;;;5.43;;
14681;SDS011;7429;52.498;13.480;2023-06-10T17:27:25;6.47;;;5.20;;
14681;SDS011;7429;52.498;13.480;2023-06-10T17:30:29;5.50;;;5.05;;
14681;SDS011;7429;52.498;13.480;2023-06-10T17:33:33;5.15;;;4.70;;
14681;SDS011;7429;52.498;13.480;2023-06-10T17:36:36;7.00;;;5.82;;
14681;SDS011;7429;52.498;13.480;2023-06-10T17:39:40;5.78;;;5.18;;
14681;SDS011;7429;52.498;13.480;2023-06-10T17:42:43;8.95;;;5.57;;
14681;SDS011;7429;52.498;13.480;2023-06-10T17:45:47;7.93;;;5.63;;
14681;SDS011;7429;52.498;13.480;2023-06-10T17:48:52;6.28;;;5.35;;
14681;SDS011;7429;52.498;13.480;2023-06-10T17:51:55;5.70;;;4.80;;
14681;SDS011;7429;52.498;13.480;2023-06-10T17:54:58;9.73;;;5.25;;
14681;SDS011;7429;52.498;13.480;2023-06-10T17:58:01;5.25;;;4.75;;
14681;SDS011;7429;52.498;13.480;2023-06-10T18:01:05;10.75;;;4.93;;
14681;SDS011;7429;52.498;13.480;2023-06-10T18:04:09;6.32;;;5.72;;
14681;SDS011;7429;52.498;13.480;2023-06-10T18:07:12;6.18;;;5.57;;
14681;SDS011;7429;52.498;13.480;2023-06-10T18:10:16;7.88;;;6.05;;
14681;SDS011;7429;52.498;13.480;2023-06-10T18:13:20;5.78;;;5.18;;
14681;SDS011;7429;52.498;13.480;2023-06-10T18:16:23;6.50;;;5.63;;
14681;SDS011;7429;52.498;13.480;2023-06-10T18:19:29;5.90;;;5.30;;
14681;SDS011;7429;52.498;13.480;2023-06-10T18:22:34;9.32;;;6.05;;